Time;durP1;ratioP1;P1;durP2;ratioP2;P2;SDS_P1;SDS_P2;PMS_P1;PMS_P2;Temp;Humidity;BMP_temperature;BMP_pressure;BME280_temperature;BME280_humidity;BME280_pressure;Samples;Min_cycle;Max_cycle;Signal;HPM_P1;HPM_P2
2022/12/07 00:02:22;;;;;;;44.30;30.45;;;;;;;3.36;100.00;67150.09;5022928;28;20042;-84
2022/12/07 00:04:48;;;;;;;44.28;26.65;;;;;;;;;;5017985;28;20038;-83
2022/12/07 00:07:13;;;;;;;38.00;21.75;;;;;;;3.32;100.00;67145.59;5016619;28;20030;-84
2022/12/07 00:09:41;;;;;;;47.15;32.88;;;;;;;3.31;100.00;67145.03;5014129;28;20307;-84
2022/12/07 00:12:06;;;;;;;44.15;26.58;;;;;;;;;;5019464;28;20044;-84
2022/12/07 00:14:31;;;;;;;44.25;29.60;;;;;;;;;;5015791;28;20030;-84
2022/12/07 00:16:57;;;;;;;43.63;27.00;;;;;;;;;;5027960;28;20045;-84
2022/12/07 00:19:22;;;;;;;45.35;28.30;;;;;;;;;;5030374;28;20042;-84
2022/12/07 00:21:48;;;;;;;41.40;24.88;;;;;;;3.27;100.00;67135.25;5016807;28;20057;-83
2022/12/07 00:24:13;;;;;;;45.70;28.65;;;;;;;3.29;100.00;67134.31;5017614;28;20045;-84
2022/12/07 00:26:40;;;;;;;51.33;29.30;;;;;;;3.27;100.00;67135.25;5014317;28;20061;-84
2022/12/07 00:29:11;;;;;;;44.45;29.55;;;;;;;3.25;100.00;67137.69;5010632;28;20405;-83
2022/12/07 00:31:38;;;;;;;47.67;35.42;;;;;;;;;;5016334;28;20038;-84
2022/12/07 00:34:05;;;;;;;42.42;26.75;;;;;;;3.23;100.00;67130.19;5018508;28;20046;-84
2022/12/07 00:36:31;;;;;;;45.40;29.27;;;;;;;3.22;100.00;67129.03;5016336;28;20033;-84
2022/12/07 00:38:58;;;;;;;48.38;31.45;;;;;;;3.23;100.00;67130.75;5026588;28;20034;-84
2022/12/07 00:41:25;;;;;;;38.17;24.92;;;;;;;;;;5016808;28;20030;-84
2022/12/07 00:43:51;;;;;;;45.85;32.78;;;;;;;3.23;100.00;67128.13;5019897;28;20085;-84
2022/12/07 00:46:17;;;;;;;41.33;25.13;;;;;;;3.23;100.00;67136.00;5004161;28;20037;-84
2022/12/07 00:48:43;;;;;;;44.28;29.42;;;;;;;;;;5016045;28;20068;-84
2022/12/07 00:51:11;;;;;;;44.20;29.67;;;;;;;3.23;100.00;67130.75;5017107;28;20502;-84
2022/12/07 00:53:37;;;;;;;39.70;23.63;;;;;;;3.19;100.00;67131.47;5014690;28;20042;-84
2022/12/07 00:56:12;;;;;;;44.65;29.08;;;;;;;3.16;100.00;67122.84;5017772;28;20141;-83
2022/12/07 00:58:37;;;;;;;45.10;30.17;;;;;;;3.14;100.00;67125.84;5016515;28;20100;-84
2022/12/07 01:01:05;;;;;;;43.55;25.55;;;;;;;3.14;100.00;67120.59;5010769;28;20037;-83
2022/12/07 01:03:31;;;;;;;38.78;23.20;;;;;;;;;;4992409;28;20104;-84
2022/12/07 01:05:56;;;;;;;42.90;29.25;;;;;;;;;;4991388;28;20506;-83
2022/12/07 01:08:22;;;;;;;39.45;26.05;;;;;;;;;;5002935;28;20579;-83
2022/12/07 01:10:48;;;;;;;41.33;30.80;;;;;;;3.03;100.00;67108.19;5012989;28;20046;-83
2022/12/07 01:13:14;;;;;;;43.40;28.20;;;;;;;2.98;100.00;67103.13;5008274;28;20088;-83
2022/12/07 01:15:44;;;;;;;47.63;33.20;;;;;;;2.93;100.00;67105.94;5011916;28;20525;-83
2022/12/07 01:18:10;;;;;;;41.65;28.27;;;;;;;2.91;100.00;67100.50;4994046;28;20077;-84
2022/12/07 01:20:36;;;;;;;42.60;26.30;;;;;;;2.87;100.00;67096.53;4990516;28;20876;-84
2022/12/07 01:23:01;;;;;;;45.25;32.25;;;;;;;2.83;100.00;67086.78;4991054;28;20042;-84
2022/12/07 01:25:26;;;;;;;46.30;31.77;;;;;;;;;;4990325;28;20133;-84
2022/12/07 01:27:52;;;;;;;41.80;24.75;;;;;;;;;;4992454;28;20133;-84
2022/12/07 01:30:17;;;;;;;46.15;30.60;;;;;;;2.69;100.00;67071.00;4990834;28;20073;-84
2022/12/07 01:32:42;;;;;;;42.03;28.85;;;;;;;;;;4990511;28;20425;-82
2022/12/07 01:35:08;;;;;;;40.97;26.23;;;;;;;;;;5003501;28;20046;-82
2022/12/07 01:37:36;;;;;;;47.55;28.08;;;;;;;2.58;100.00;67058.59;5011657;28;20061;-83
2022/12/07 01:40:02;;;;;;;39.08;25.60;;;;;;;;;;5028135;28;20271;-83
2022/12/07 01:42:28;;;;;;;49.80;33.20;;;;;;;2.54;100.00;67061.97;4993105;28;20109;-83
2022/12/07 01:45:31;;;;;;;45.72;24.08;;;;;;;2.52;100.00;67057.09;5012100;28;20113;-83
2022/12/07 01:47:57;;;;;;;45.40;30.35;;;;;;;2.48;100.00;67053.72;4981486;28;20072;-83
2022/12/07 01:50:27;;;;;;;44.45;32.38;;;;;;;2.47;100.00;67047.34;5004007;28;20036;-83
2022/12/07 01:52:56;;;;;;;49.85;31.05;;;;;;;2.42;100.00;67041.69;5030281;28;20042;-84
2022/12/07 01:55:22;;;;;;;42.83;28.63;;;;;;;;;;5029366;28;20120;-83
2022/12/07 01:57:50;;;;;;;40.47;24.52;;;;;;;2.36;100.00;67042.25;5030944;28;20524;-84
2022/12/07 02:00:16;;;;;;;39.55;24.70;;;;;;;;;;5030361;28;20037;-83
2022/12/07 02:02:55;;;;;;;43.60;30.02;;;;;;;2.30;100.00;67024.97;5029728;28;20405;-83
2022/12/07 02:05:21;;;;;;;43.33;28.67;;;;;;;;;;5020176;28;20504;-83
2022/12/07 02:07:47;;;;;;;39.08;24.58;;;;;;;;;;5013806;28;20115;-83
2022/12/07 02:10:20;;;;;;;42.22;25.48;;;;;;;2.18;100.00;67020.47;5030752;28;20041;-83
2022/12/07 02:12:47;;;;;;;41.15;24.30;;;;;;;;;;5011127;28;20128;-83
2022/12/07 02:15:13;;;;;;;39.10;23.73;;;;;;;2.13;100.00;67009.00;5022074;28;20042;-84
2022/12/07 02:17:56;;;;;;;35.05;20.85;;;;;;;2.10;100.00;67005.63;5028770;28;20048;-83
2022/12/07 02:20:27;;;;;;;33.15;18.95;;;;;;;;;;5008217;28;20104;-83
2022/12/07 02:23:14;;;;;;;41.42;26.42;;;;;;;2.01;100.00;67001.91;5009804;28;20041;-84
2022/12/07 02:25:59;;;;;;;41.17;21.92;;;;;;;1.98;100.00;66997.94;5027102;28;20044;-83
2022/12/07 02:29:06;;;;;;;38.20;21.98;;;;;;;1.98;100.00;66997.94;5030803;28;20529;-83
2022/12/07 02:31:32;;;;;;;41.50;28.55;;;;;;;1.93;100.00;66992.88;5021538;28;20115;-83
2022/12/07 02:34:02;;;;;;;34.10;22.45;;;;;;;;;;5013415;28;20553;-83
2022/12/07 02:36:30;;;;;;;35.63;23.58;;;;;;;;;;5026297;28;20100;-83
2022/12/07 02:38:57;;;;;;;40.33;26.50;;;;;;;;;;5030736;28;20064;-83
2022/12/07 02:41:28;;;;;;;35.00;20.85;;;;;;;;;;5029691;28;20033;-84
2022/12/07 02:43:57;;;;;;;39.00;24.08;;;;;;;1.83;100.00;66976.34;5011276;28;20072;-83
2022/12/07 02:46:30;;;;;;;41.85;25.88;;;;;;;1.85;100.00;66983.88;5030355;28;20041;-83
2022/12/07 02:48:59;;;;;;;40.55;25.13;;;;;;;1.83;100.00;66981.59;5012491;28;20050;-83
2022/12/07 02:51:25;;;;;;;37.83;27.50;;;;;;;1.75;100.00;66972.59;5030507;28;20044;-83
2022/12/07 02:53:50;;;;;;;36.35;22.95;;;;;;;1.78;100.00;66975.97;5030548;28;20401;-83
2022/12/07 02:56:37;;;;;;;32.10;16.40;;;;;;;1.76;100.00;66976.34;5028256;28;20489;-84
2022/12/07 02:59:21;;;;;;;37.72;25.17;;;;;;;;;;5010658;28;20042;-83
2022/12/07 03:01:56;;;;;;;31.17;17.75;;;;;;;1.75;100.00;66967.34;5028584;28;20041;-84
2022/12/07 03:04:57;;;;;;;36.05;24.52;;;;;;;1.68;100.00;66964.72;5026600;28;20382;-83
2022/12/07 03:07:25;;;;;;;31.25;19.77;;;;;;;1.70;100.00;66961.72;5011387;28;20084;-83
2022/12/07 03:10:18;;;;;;;34.97;22.15;;;;;;;1.69;100.00;66961.16;5031610;28;20049;-84
2022/12/07 03:12:45;;;;;;;28.10;14.93;;;;;;;;;;5032603;28;20053;-83
2022/12/07 03:15:27;;;;;;;30.88;17.02;;;;;;;;;;4995566;28;20042;-83
2022/12/07 03:17:56;;;;;;;29.13;19.15;;;;;;;1.71;100.00;66968.09;5033786;28;20546;-84
2022/12/07 03:20:25;;;;;;;32.45;22.15;;;;;;;1.71;100.00;66968.66;5035703;28;20037;-84
2022/12/07 03:22:51;;;;;;;30.17;17.38;;;;;;;;;;5035555;28;20050;-84
2022/12/07 03:25:16;;;;;;;28.50;18.00;;;;;;;;;;5035090;28;20244;-83
2022/12/07 03:27:52;;;;;;;29.30;17.23;;;;;;;1.75;100.00;66975.22;5029189;28;20386;-84
2022/12/07 03:30:19;;;;;;;27.88;15.65;;;;;;;;;;5012367;28;20037;-84
2022/12/07 03:32:54;;;;;;;30.02;18.80;;;;;;;1.75;100.00;66967.34;5035647;28;20037;-84
2022/12/07 03:35:28;;;;;;;32.47;20.23;;;;;;;;;;5029149;28;20279;-84
2022/12/07 03:38:15;;;;;;;29.73;18.15;;;;;;;1.72;100.00;66963.97;5035027;28;20051;-84
2022/12/07 03:40:58;;;;;;;28.48;17.85;;;;;;;1.71;100.00;66962.84;5031191;28;20053;-83
2022/12/07 03:43:23;;;;;;;32.08;17.05;;;;;;;1.68;100.00;66967.34;5033441;28;20033;-83
2022/12/07 03:46:14;;;;;;;25.85;15.95;;;;;;;1.65;100.00;66961.34;5035599;28;20034;-83
2022/12/07 03:48:47;;;;;;;26.00;14.93;;;;;;;;;;5032680;28;20516;-83
2022/12/07 03:51:15;;;;;;;26.08;13.23;;;;;;;;;;5037932;28;20408;-83
2022/12/07 03:53:48;;;;;;;21.67;13.10;;;;;;;1.68;100.00;66967.91;5038351;28;20053;-84
2022/12/07 03:56:13;;;;;;;28.35;17.45;;;;;;;1.74;100.00;66966.22;5034736;28;20037;-83
2022/12/07 03:58:40;;;;;;;22.88;12.98;;;;;;;1.72;100.00;66972.41;5036559;28;20068;-84
2022/12/07 04:01:05;;;;;;;20.65;12.48;;;;;;;;;;5036003;28;20041;-84
2022/12/07 04:03:31;;;;;;;28.92;11.98;;;;;;;1.72;100.00;66971.84;5035404;28;20515;-82
2022/12/07 04:05:57;;;;;;;25.48;14.20;;;;;;;;;;5028464;28;20072;-83
2022/12/07 04:08:23;;;;;;;21.80;13.40;;;;;;;1.70;100.00;66967.53;5027249;28;20073;-83
2022/12/07 04:10:48;;;;;;;27.60;12.77;;;;;;;1.70;100.00;66966.97;5030972;28;20461;-82
2022/12/07 04:13:13;;;;;;;22.63;12.43;;;;;;;1.69;100.00;66965.84;5032501;28;20033;-83
2022/12/07 04:15:39;;;;;;;27.23;14.10;;;;;;;1.71;100.00;66968.66;5021159;28;20190;-83
2022/12/07 04:18:04;;;;;;;23.17;11.40;;;;;;;1.72;100.00;66964.53;5035934;28;20102;-83
2022/12/07 04:20:29;;;;;;;24.70;15.52;;;;;;;;;;5030655;28;20052;-83
2022/12/07 04:22:55;;;;;;;21.00;12.38;;;;;;;1.78;100.00;66971.31;5029997;28;20038;-84
2022/12/07 04:25:20;;;;;;;24.75;11.82;;;;;;;;;;5025895;28;20049;-83
2022/12/07 04:27:45;;;;;;;22.17;14.32;;;;;;;;;;5009555;28;20049;-83
2022/12/07 04:30:10;;;;;;;20.80;12.27;;;;;;;;;;5023082;28;20524;-83
2022/12/07 04:32:36;;;;;;;20.88;11.60;;;;;;;;;;5031598;28;20493;-83
2022/12/07 04:35:03;;;;;;;21.35;12.27;;;;;;;1.84;100.00;66982.72;5030162;28;20033;-83
2022/12/07 04:37:28;;;;;;;22.27;14.50;;;;;;;1.87;100.00;66980.88;5031977;28;20056;-83
2022/12/07 04:39:53;;;;;;;20.27;11.35;;;;;;;1.86;100.00;66984.97;5032121;28;20045;-84
2022/12/07 04:42:19;;;;;;;25.02;13.38;;;;;;;1.84;100.00;66984.78;5028422;28;20034;-82
2022/12/07 04:44:44;;;;;;;22.63;11.73;;;;;;;1.87;100.00;66985.53;5016447;28;20033;-83
2022/12/07 04:47:09;;;;;;;19.55;11.82;;;;;;;;;;5014371;28;20152;-83
2022/12/07 04:49:35;;;;;;;24.23;12.80;;;;;;;1.90;100.00;66988.91;5015856;28;20044;-84
2022/12/07 04:52:00;;;;;;;16.30;8.77;;;;;;;;;;5030876;28;20041;-83
2022/12/07 04:54:26;;;;;;;19.83;10.75;;;;;;;;;;5008650;28;20046;-82
2022/12/07 04:56:51;;;;;;;20.75;10.65;;;;;;;;;;5027241;28;20443;-83
2022/12/07 04:59:17;;;;;;;18.60;10.88;;;;;;;1.99;100.00;66999.06;5008246;28;20042;-83
2022/12/07 05:01:43;;;;;;;22.23;12.07;;;;;;;1.97;100.00;66991.56;5029837;28;20048;-83
2022/12/07 05:04:08;;;;;;;17.65;10.10;;;;;;;1.97;100.00;66986.88;5025743;28;20038;-83
2022/12/07 05:06:34;;;;;;;16.50;9.45;;;;;;;;;;5028617;28;20033;-83
2022/12/07 05:08:59;;;;;;;13.40;6.55;;;;;;;1.93;100.00;66987.63;5025070;28;20145;-83
2022/12/07 05:11:39;;;;;;;16.92;8.15;;;;;;;;;;5013318;28;20069;-83
2022/12/07 05:14:14;;;;;;;13.60;7.18;;;;;;;1.93;100.00;66992.88;5006264;28;20046;-83
2022/12/07 05:16:40;;;;;;;15.70;8.60;;;;;;;;;;5011860;28;20189;-84
2022/12/07 05:19:06;;;;;;;16.50;8.30;;;;;;;;;;5012131;28;20076;-83
2022/12/07 05:21:31;;;;;;;15.80;8.48;;;;;;;1.88;100.00;66986.69;5011441;28;20104;-82
2022/12/07 05:23:56;;;;;;;20.25;9.10;;;;;;;1.88;100.00;66987.25;5013675;28;20049;-83
2022/12/07 05:26:22;;;;;;;15.60;9.68;;;;;;;1.88;100.00;66987.25;4998410;28;20125;-84
2022/12/07 05:28:55;;;;;;;15.27;9.50;;;;;;;1.85;100.00;66983.88;4993082;28;20082;-83
2022/12/07 05:31:21;;;;;;;14.48;7.40;;;;;;;;;;5003922;28;20050;-84
2022/12/07 05:33:46;;;;;;;12.80;7.47;;;;;;;1.85;100.00;66978.63;5009171;28;20041;-84
2022/12/07 05:36:12;;;;;;;17.40;7.10;;;;;;;1.85;100.00;66983.88;5009792;28;20045;-83
2022/12/07 05:38:37;;;;;;;18.70;5.97;;;;;;;1.89;100.00;66987.81;5013982;28;20397;-82
2022/12/07 05:41:04;;;;;;;13.25;7.30;;;;;;;1.88;100.00;66982.00;5004545;28;20080;-83
2022/12/07 05:43:30;;;;;;;14.95;6.97;;;;;;;1.94;100.00;66996.63;5005768;28;20065;-83
2022/12/07 05:45:56;;;;;;;15.88;9.10;;;;;;;1.91;100.00;66984.81;5012362;28;20033;-82
2022/12/07 05:48:22;;;;;;;17.38;7.70;;;;;;;1.93;100.00;66987.06;5018771;28;20045;-83
2022/12/07 05:50:48;;;;;;;13.88;7.70;;;;;;;;;;5006993;28;20046;-82
2022/12/07 05:53:13;;;;;;;14.80;8.00;;;;;;;1.94;100.00;66988.75;5013644;28;20136;-83
2022/12/07 05:55:38;;;;;;;15.50;6.65;;;;;;;;;;5011363;28;20040;-82
2022/12/07 06:00:47;;;;;;;15.63;8.18;;;;;;;1.92;100.00;66991.75;5005608;28;20041;-84
2022/12/07 06:03:13;;;;;;;14.98;7.55;;;;;;;1.91;100.00;66990.06;5012228;28;20041;-83
2022/12/07 06:05:38;;;;;;;15.88;8.15;;;;;;;1.81;100.00;66974.09;4995152;28;20046;-83
2022/12/07 06:08:03;;;;;;;13.98;6.78;;;;;;;;;;5010893;28;20395;-83
2022/12/07 06:10:29;;;;;;;16.70;5.75;;;;;;;1.75;100.00;66977.84;5008801;28;20038;-83
2022/12/07 06:12:54;;;;;;;18.10;7.43;;;;;;;1.70;100.00;66967.53;5008365;28;20550;-83
2022/12/07 06:15:19;;;;;;;11.25;6.47;;;;;;;1.71;100.00;66968.09;4996875;28;20120;-83
2022/12/07 06:17:44;;;;;;;12.20;7.75;;;;;;;;;;5015463;28;20029;-83
2022/12/07 06:20:10;;;;;;;14.07;7.07;;;;;;;;;;5010479;28;20581;-82
2022/12/07 06:22:35;;;;;;;11.77;7.38;;;;;;;1.69;100.00;66966.41;5011096;28;20526;-83
2022/12/07 06:25:01;;;;;;;18.60;10.98;;;;;;;1.68;100.00;66959.47;5009929;28;20080;-83
2022/12/07 06:27:26;;;;;;;22.08;10.77;;;;;;;1.66;100.00;66962.47;5009572;28;20048;-83
2022/12/07 06:29:52;;;;;;;19.73;9.75;;;;;;;;;;5009758;28;20417;-83
2022/12/07 06:32:17;;;;;;;15.63;9.90;;;;;;;;;;5002173;28;20529;-82
2022/12/07 06:34:42;;;;;;;19.77;9.70;;;;;;;1.69;100.00;66965.84;5026291;28;20167;-82
2022/12/07 06:37:08;;;;;;;21.92;7.75;;;;;;;1.71;100.00;66968.09;5014080;28;20092;-82
2022/12/07 06:39:33;;;;;;;23.60;10.75;;;;;;;1.73;100.00;66965.66;5018735;28;20037;-82
2022/12/07 06:41:58;;;;;;;23.48;12.63;;;;;;;1.75;100.00;66972.59;5007717;28;20088;-82
2022/12/07 06:44:24;;;;;;;12.98;6.55;;;;;;;1.75;100.00;66973.16;5014649;28;20053;-83
2022/12/07 06:46:51;;;;;;;12.73;5.97;;;;;;;1.78;100.00;66971.31;5004210;28;20049;-82
2022/12/07 06:49:16;;;;;;;13.65;7.70;;;;;;;;;;5007626;28;20136;-83
2022/12/07 06:51:42;;;;;;;13.20;6.80;;;;;;;1.79;100.00;66979.72;5014631;28;20633;-83
2022/12/07 06:54:12;;;;;;;25.40;11.05;;;;;;;1.76;100.00;66973.72;5024714;28;20120;-82
2022/12/07 06:56:38;;;;;;;22.65;11.80;;;;;;;1.75;100.00;66967.34;5001231;28;20038;-82
2022/12/07 06:59:06;;;;;;;14.43;7.40;;;;;;;1.73;100.00;66972.97;5013387;28;20046;-83
2022/12/07 07:01:31;;;;;;;21.55;8.13;;;;;;;;;;5012120;28;20042;-82
2022/12/07 07:03:57;;;;;;;21.15;9.55;;;;;;;1.66;100.00;66957.22;5017764;28;20113;-82
2022/12/07 07:06:22;;;;;;;15.98;7.90;;;;;;;1.68;100.00;66959.47;5011579;28;20042;-82
2022/12/07 07:08:47;;;;;;;17.27;10.30;;;;;;;1.65;100.00;66961.34;5012118;28;20054;-83
2022/12/07 07:11:13;;;;;;;19.17;12.57;;;;;;;1.61;100.00;66959.44;5018280;28;20088;-83
2022/12/07 07:13:38;;;;;;;21.25;12.95;;;;;;;1.64;100.00;66960.19;5020039;28;20049;-83
2022/12/07 07:16:05;;;;;;;19.50;11.27;;;;;;;1.58;100.00;66949.34;5025964;28;20040;-83
2022/12/07 07:18:30;;;;;;;15.70;10.13;;;;;;;1.54;100.00;66950.06;5035907;28;20088;-83
2022/12/07 07:20:56;;;;;;;18.60;11.30;;;;;;;1.54;100.00;66944.28;5002063;28;20046;-83
2022/12/07 07:23:21;;;;;;;14.73;9.07;;;;;;;1.50;100.00;66945.56;4996759;28;20106;-83
2022/12/07 07:25:47;;;;;;;15.27;8.32;;;;;;;;;;5010447;28;20091;-83
2022/12/07 07:28:13;;;;;;;15.93;7.38;;;;;;;1.45;100.00;66939.94;5020914;28;20341;-83
2022/12/07 07:30:38;;;;;;;21.55;9.75;;;;;;;;;;5013508;28;20034;-83
2022/12/07 07:33:04;;;;;;;20.05;8.82;;;;;;;;;;5017284;28;20042;-82
2022/12/07 07:35:30;;;;;;;14.90;9.18;;;;;;;;;;5015630;28;20084;-82
2022/12/07 07:37:55;;;;;;;14.23;9.48;;;;;;;1.39;100.00;66935.81;5015750;28;20049;-82
2022/12/07 07:40:21;;;;;;;15.82;9.68;;;;;;;;;;5014525;28;20489;-83
2022/12/07 07:42:49;;;;;;;16.35;10.15;;;;;;;;;;5015646;28;20064;-83
2022/12/07 07:45:15;;;;;;;15.77;9.25;;;;;;;1.37;100.00;66930.94;5020912;28;20079;-83
2022/12/07 07:47:40;;;;;;;20.67;10.10;;;;;;;1.36;100.00;66924.56;5024636;28;20049;-83
2022/12/07 07:50:06;;;;;;;25.65;13.32;;;;;;;;;;5038026;28;20335;-83
2022/12/07 07:52:32;;;;;;;22.42;13.18;;;;;;;1.37;100.00;66930.94;5032021;28;20034;-83
2022/12/07 07:54:57;;;;;;;25.00;10.43;;;;;;;;;;5016558;28;20060;-83
2022/12/07 07:57:22;;;;;;;27.02;13.02;;;;;;;1.43;100.00;66931.88;5018600;28;20034;-83
2022/12/07 07:59:48;;;;;;;24.05;9.95;;;;;;;1.46;100.00;66945.75;5030032;28;20064;-83
2022/12/07 08:02:15;;;;;;;19.92;10.50;;;;;;;1.52;100.00;66952.50;5025634;28;20053;-83
2022/12/07 08:04:40;;;;;;;18.40;11.25;;;;;;;;;;5025676;28;20034;-83
2022/12/07 08:07:05;;;;;;;18.45;10.82;;;;;;;;;;5033450;28;20057;-83
2022/12/07 08:09:31;;;;;;;23.90;11.30;;;;;;;1.64;100.00;66963.41;5043239;28;20536;-82
2022/12/07 08:11:57;;;;;;;22.67;11.35;;;;;;;;;;5015362;28;20078;-82
2022/12/07 08:14:22;;;;;;;19.65;9.90;;;;;;;1.75;100.00;66972.59;5005229;28;20049;-83
2022/12/07 08:16:47;;;;;;;21.55;11.27;;;;;;;1.80;100.00;66973.53;5013025;28;20506;-83
2022/12/07 08:19:13;;;;;;;14.45;6.22;;;;;;;1.83;100.00;66981.59;5021269;28;20490;-82
2022/12/07 08:21:38;;;;;;;20.88;11.63;;;;;;;;;;5013416;28;20058;-83
2022/12/07 08:24:04;;;;;;;17.38;9.52;;;;;;;;;;5026356;28;20048;-83
2022/12/07 08:26:29;;;;;;;19.88;10.80;;;;;;;1.93;100.00;66984.44;5016591;28;20041;-82
2022/12/07 08:28:54;;;;;;;20.40;8.90;;;;;;;;;;5018061;28;20046;-83
2022/12/07 08:31:19;;;;;;;20.83;11.18;;;;;;;;;;5004106;28;20065;-82
2022/12/07 08:33:47;;;;;;;18.88;10.00;;;;;;;1.96;100.00;66996.25;5018609;28;20057;-82
2022/12/07 08:36:13;;;;;;;19.02;9.52;;;;;;;1.96;100.00;66990.44;5018342;28;20056;-83
2022/12/07 08:38:39;;;;;;;17.40;9.98;;;;;;;;;;5012574;28;20183;-82
2022/12/07 08:41:05;;;;;;;14.15;7.35;;;;;;;;;;5016595;28;20050;-82
2022/12/07 08:43:30;;;;;;;13.82;8.95;;;;;;;;;;5015957;28;20033;-83
2022/12/07 08:46:23;;;;;;;18.13;8.73;;;;;;;1.94;100.00;66994.00;5011345;28;20041;-82
2022/12/07 08:48:52;;;;;;;18.25;10.00;;;;;;;;;;5015857;28;20513;-82
2022/12/07 08:51:17;;;;;;;20.83;10.03;;;;;;;2.00;100.00;66995.50;5005349;28;20034;-83
2022/12/07 08:53:43;;;;;;;19.65;10.00;;;;;;;2.02;100.00;66997.75;5010315;28;20091;-83
2022/12/07 08:56:09;;;;;;;18.30;11.15;;;;;;;2.04;100.00;66999.44;5010552;28;20042;-82
2022/12/07 08:58:35;;;;;;;15.65;8.40;;;;;;;;;;5011466;28;20149;-82
2022/12/07 09:01:00;;;;;;;15.25;6.30;;;;;;;;;;5019113;28;20096;-83
2022/12/07 09:03:25;;;;;;;12.25;6.00;;;;;;;2.15;100.00;67011.28;4999788;28;20029;-83
2022/12/07 09:05:52;;;;;;;18.85;7.85;;;;;;;;;;5012692;28;20088;-82
2022/12/07 09:08:18;;;;;;;16.67;8.30;;;;;;;2.30;100.00;67032.84;5026088;28;20133;-83
2022/12/07 09:10:43;;;;;;;17.17;10.00;;;;;;;;;;5015137;28;20062;-83
2022/12/07 09:13:08;;;;;;;14.93;7.18;;;;;;;2.49;100.00;67054.81;5017897;28;20041;-82
2022/12/07 09:15:34;;;;;;;17.50;8.90;;;;;;;2.60;100.00;67060.84;5008346;28;20038;-83
2022/12/07 09:17:59;;;;;;;13.10;6.78;;;;;;;2.68;100.00;67069.88;5020782;28;20038;-82
2022/12/07 09:20:24;;;;;;;15.05;9.02;;;;;;;;;;5011783;28;20540;-82
2022/12/07 09:22:49;;;;;;;13.88;6.30;;;;;;;;;;5015806;28;20053;-82
2022/12/07 09:25:15;;;;;;;17.35;7.30;;;;;;;2.89;100.00;67098.78;5015678;28;20037;-83
2022/12/07 09:27:40;;;;;;;11.55;6.13;;;;;;;;;;5016593;28;20079;-83
2022/12/07 09:30:06;;;;;;;9.18;5.30;;;;;;;;;;5015044;28;20042;-82
2022/12/07 09:32:31;;;;;;;13.15;4.28;;;;;;;;;;5015182;28;20505;-82
2022/12/07 09:34:56;;;;;;;14.75;6.63;;;;;;;;;;5013757;28;20088;-83
2022/12/07 09:37:22;;;;;;;11.75;6.38;;;;;;;;;;5016194;28;20054;-83
2022/12/07 09:39:47;;;;;;;10.18;4.50;;;;;;;3.01;100.00;67113.81;5012364;28;20064;-83
2022/12/07 09:42:43;;;;;;;11.98;5.60;;;;;;;3.04;100.00;67109.31;5018425;28;20493;-82
2022/12/07 09:45:15;;;;;;;16.75;4.68;;;;;;;3.06;100.00;67116.84;5009086;28;20042;-83
2022/12/07 09:47:41;;;;;;;14.65;5.85;;;;;;;3.15;100.00;67121.72;5013664;28;20069;-83
2022/12/07 09:50:13;;;;;;;9.40;5.60;;;;;;;3.17;100.00;67123.97;5015697;28;20502;-82
2022/12/07 09:52:38;;;;;;;13.25;5.72;;;;;;;3.20;100.00;67126.81;5022804;28;20037;-83
2022/12/07 09:55:11;;;;;;;12.43;5.55;;;;;;;3.17;100.00;67129.25;5034832;28;20037;-82
2022/12/07 09:57:37;;;;;;;9.20;3.75;;;;;;;3.12;100.00;67118.34;5038555;28;20061;-83
2022/12/07 10:00:10;;;;;;;12.05;4.95;;;;;;;3.11;100.00;67117.78;5029341;28;20057;-82
2022/12/07 10:02:37;;;;;;;10.68;4.38;;;;;;;;;;5026751;28;20033;-82
2022/12/07 10:05:03;;;;;;;8.75;4.70;;;;;;;;;;5022429;28;20038;-83
2022/12/07 10:07:29;;;;;;;11.63;5.13;;;;;;;3.20;100.00;67127.38;5033222;28;20052;-83
2022/12/07 10:09:54;;;;;;;9.38;3.78;;;;;;;;;;5024395;28;20038;-82
2022/12/07 10:12:20;;;;;;;12.65;5.20;;;;;;;3.29;100.00;67142.22;5019727;28;20448;-83
2022/12/07 10:15:05;;;;;;;12.23;3.95;;;;;;;3.31;100.00;67145.03;5011046;28;20408;-82
2022/12/07 10:17:38;;;;;;;8.73;4.38;;;;;;;;;;5027491;28;20520;-83
2022/12/07 10:20:13;;;;;;;13.43;4.88;;;;;;;3.39;100.00;67153.47;5039958;28;20047;-82
2022/12/07 10:22:53;;;;;;;11.38;5.10;;;;;;;;;;5029828;28;20040;-82
2022/12/07 10:25:21;;;;;;;11.73;5.13;;;;;;;3.49;100.00;67167.38;5019231;28;20069;-83
2022/12/07 10:28:17;;;;;;;9.93;4.40;;;;;;;3.53;100.00;67163.44;5013115;28;20038;-83
2022/12/07 10:30:47;;;;;;;14.48;5.07;;;;;;;;;;5022310;28;20362;-83
2022/12/07 10:33:34;;;;;;;11.13;4.38;;;;;;;3.63;100.00;67180.00;5024458;28;20053;-83
2022/12/07 10:36:00;;;;;;;8.65;4.60;;;;;;;;;;5014875;28;20062;-83
2022/12/07 10:38:27;;;;;;;12.52;6.03;;;;;;;;;;5027813;28;20046;-83
2022/12/07 10:41:08;;;;;;;10.70;4.68;;;;;;;3.86;100.00;67205.38;5016455;28;20049;-82
2022/12/07 10:43:33;;;;;;;8.32;3.88;;;;;;;3.89;100.00;67202.94;5000706;28;20034;-82
2022/12/07 10:46:20;;;;;;;6.53;3.55;;;;;;;3.93;100.00;67207.44;5015122;28;20514;-82
2022/12/07 10:49:04;;;;;;;7.57;3.17;;;;;;;3.99;100.00;67214.22;5008595;28;20053;-82
2022/12/07 10:51:37;;;;;;;7.50;2.63;;;;;;;;;;5006924;28;20053;-83
2022/12/07 10:54:20;;;;;;;10.75;2.90;;;;;;;;;;4980585;28;20042;-82
2022/12/07 10:57:01;;;;;;;11.40;3.15;;;;;;;;;;4993996;28;20039;-82
2022/12/07 10:59:49;;;;;;;8.20;3.10;;;;;;;4.21;100.00;67243.75;4999241;28;20065;-82
2022/12/07 11:02:35;;;;;;;10.82;2.97;;;;;;;4.26;100.00;67249.38;5001767;28;20072;-83
2022/12/07 11:05:16;;;;;;;9.13;3.38;;;;;;;;;;5029340;28;20493;-83
2022/12/07 11:07:46;;;;;;;8.82;2.17;;;;;;;;;;5022019;28;20503;-82
2022/12/07 11:10:11;;;;;;;10.18;3.28;;;;;;;;;;4994862;28;20283;-82
2022/12/07 11:12:59;;;;;;;5.95;3.25;;;;;;;4.64;100.00;67286.44;5020513;28;20041;-82
2022/12/07 11:15:46;;;;;;;5.18;2.20;;;;;;;4.69;100.00;67296.78;5027263;28;20068;-82
2022/12/07 11:18:18;;;;;;;7.65;2.33;;;;;;;4.73;100.00;67296.59;5000362;28;20049;-82
2022/12/07 11:20:50;;;;;;;4.60;1.73;;;;;;;4.81;100.00;67310.34;5030990;28;20128;-83
2022/12/07 11:23:24;;;;;;;6.43;2.42;;;;;;;;;;5010039;28;20048;-82
2022/12/07 11:26:12;;;;;;;8.90;2.20;;;;;;;4.79;100.00;67302.81;5031547;28;20085;-83
2022/12/07 11:28:49;;;;;;;7.13;2.67;;;;;;;4.85;100.00;67309.59;5018321;28;20452;-82
2022/12/07 11:31:26;;;;;;;8.75;2.67;;;;;;;;;;5031895;28;20080;-83
2022/12/07 11:34:13;;;;;;;6.13;2.28;;;;;;;4.85;100.00;67309.59;5030941;28;20591;-82
2022/12/07 11:36:46;;;;;;;6.50;1.90;;;;;;;4.87;100.00;67316.56;5032050;28;20048;-82
2022/12/07 11:39:21;;;;;;;7.90;2.33;;;;;;;;;;5036414;28;20061;-83
2022/12/07 11:41:50;;;;;;;5.82;1.50;;;;;;;4.93;100.00;67318.63;5035274;28;20045;-83
2022/12/07 11:44:27;;;;;;;6.68;2.15;;;;;;;;;;5010514;28;20034;-82
2022/12/07 11:47:06;;;;;;;4.38;1.90;;;;;;;5.03;100.00;67329.34;5020498;28;20038;-83
2022/12/07 11:49:39;;;;;;;7.05;2.20;;;;;;;5.00;100.00;67325.41;5036522;28;20374;-82
2022/12/07 11:52:06;;;;;;;8.50;2.05;;;;;;;;;;5033619;28;20128;-82
2022/12/07 11:54:38;;;;;;;9.18;2.70;;;;;;;;;;5037668;28;20053;-82
2022/12/07 11:57:05;;;;;;;7.57;2.42;;;;;;;;;;5038668;28;20057;-81
2022/12/07 11:59:39;;;;;;;7.65;2.55;;;;;;;;;;5037780;28;20532;-82
2022/12/07 12:02:26;;;;;;;7.05;1.95;;;;;;;5.03;100.00;67329.34;5038905;28;20057;-82
2022/12/07 12:04:58;;;;;;;9.48;2.50;;;;;;;;;;5036958;28;20493;-81
2022/12/07 12:07:26;;;;;;;6.78;2.35;;;;;;;5.03;100.00;67326.16;5036482;28;20057;-82
2022/12/07 12:09:57;;;;;;;8.73;1.90;;;;;;;;;;5019295;28;20108;-82
2022/12/07 12:12:31;;;;;;;8.23;2.22;;;;;;;4.98;100.00;67321.06;5018898;28;20025;-83
2022/12/07 12:14:59;;;;;;;5.93;2.22;;;;;;;;;;5036290;28;20045;-81
2022/12/07 12:17:36;;;;;;;5.80;1.88;;;;;;;;;;5031072;28;20033;-82
2022/12/07 12:20:23;;;;;;;11.43;4.15;;;;;;;4.99;100.00;67330.13;5025395;28;20045;-82
2022/12/07 12:23:01;;;;;;;9.73;3.00;;;;;;;4.95;100.00;67320.88;5027295;28;20418;-82
2022/12/07 12:25:37;;;;;;;6.38;2.70;;;;;;;4.91;100.00;67315.81;5001014;28;20039;-82
2022/12/07 12:28:03;;;;;;;5.18;1.90;;;;;;;4.87;100.00;67311.28;5012390;28;20410;-82
2022/12/07 12:30:38;;;;;;;8.10;2.22;;;;;;;4.86;100.00;67310.72;5017936;28;20046;-82
2022/12/07 12:33:20;;;;;;;10.55;2.90;;;;;;;4.87;100.00;67311.84;5011109;28;20517;-82
2022/12/07 12:35:45;;;;;;;13.80;4.45;;;;;;;;;;5023771;28;20049;-82
2022/12/07 12:38:35;;;;;;;9.25;3.13;;;;;;;5.18;100.00;67351.00;5014195;28;20060;-81